Time;durP1;ratioP1;P1;durP2;ratioP2;P2;SDS_P1;SDS_P2;PMS_P1;PMS_P2;Temp;Humidity;BMP_temperature;BMP_pressure;BME280_temperature;BME280_humidity;BME280_pressure;Samples;Min_cycle;Max_cycle;Signal;HPM_P1;HPM_P2
2024/03/03 00:01:50;;;;;;;5.00;3.67;;;;;;;1.82;100.00;98791.22;5030543;28;20049;-60
2024/03/03 00:04:17;;;;;;;7.60;5.38;;;;;;;1.81;100.00;98781.41;5038593;28;20141;-60
2024/03/03 00:06:47;;;;;;;4.80;3.63;;;;;;;1.80;100.00;98789.97;5026969;28;20061;-57
2024/03/03 00:09:17;;;;;;;7.50;4.80;;;;;;;1.74;100.00;98789.34;5040897;28;20576;-62
2024/03/03 00:11:44;;;;;;;10.65;5.07;;;;;;;1.72;100.00;98788.88;5046118;28;20049;-59
2024/03/03 00:14:13;;;;;;;7.15;4.32;;;;;;;1.69;100.00;98792.28;5047358;28;20084;-59
2024/03/03 00:16:43;;;;;;;7.75;4.60;;;;;;;1.66;100.00;98803.88;5048535;28;20483;-59
2024/03/03 00:19:11;;;;;;;11.50;4.35;;;;;;;1.65;100.00;98788.63;5027773;28;20450;-59
2024/03/03 00:21:38;;;;;;;8.02;4.38;;;;;;;1.63;100.00;98790.09;5040104;28;20045;-59
2024/03/03 00:24:05;;;;;;;12.55;5.15;;;;;;;1.59;100.00;98789.94;5043734;28;20048;-59
2024/03/03 00:26:33;;;;;;;9.15;5.05;;;;;;;1.57;100.00;98791.41;5048398;28;20564;-58
2024/03/03 00:29:01;;;;;;;9.70;6.03;;;;;;;1.56;100.00;98787.88;5048247;28;20467;-60
2024/03/03 00:31:28;;;;;;;8.25;6.38;;;;;;;1.56;100.00;98793.34;5048104;28;20052;-59
2024/03/03 00:33:55;;;;;;;13.00;6.80;;;;;;;1.56;100.00;98785.16;5060167;28;20045;-59
2024/03/03 00:36:23;;;;;;;11.23;6.65;;;;;;;1.55;100.00;98793.69;5036936;28;20049;-58
2024/03/03 00:38:51;;;;;;;11.90;6.88;;;;;;;1.57;100.00;98794.94;5046938;28;20052;-59
2024/03/03 00:41:18;;;;;;;13.85;7.85;;;;;;;1.58;100.00;98799.28;5037433;28;20044;-58
2024/03/03 00:43:45;;;;;;;12.48;6.85;;;;;;;1.60;100.00;98798.94;5045397;28;20067;-57
2024/03/03 00:46:13;;;;;;;12.00;7.03;;;;;;;1.61;100.00;98803.28;5037843;28;20055;-59
2024/03/03 00:48:40;;;;;;;13.82;8.32;;;;;;;1.60;100.00;98801.66;5051464;28;20048;-58
2024/03/03 00:51:08;;;;;;;14.15;8.25;;;;;;;1.59;100.00;98802.81;5058520;28;20045;-58
2024/03/03 00:53:35;;;;;;;17.88;8.52;;;;;;;1.59;100.00;98806.31;5036389;28;20702;-59
2024/03/03 00:56:04;;;;;;;16.92;8.88;;;;;;;1.63;100.00;98801.00;5034437;28;20507;-60
2024/03/03 00:58:33;;;;;;;17.85;8.75;;;;;;;1.62;100.00;98792.00;5046049;28;20073;-59
2024/03/03 01:01:01;;;;;;;16.02;9.30;;;;;;;1.65;100.00;98809.63;5040509;28;20060;-61
2024/03/03 01:03:30;;;;;;;15.98;10.40;;;;;;;1.67;100.00;98804.63;5051954;28;20399;-60
2024/03/03 01:05:57;;;;;;;22.88;9.93;;;;;;;1.70;100.00;98806.72;5057133;28;20388;-59
2024/03/03 01:08:26;;;;;;;19.92;10.15;;;;;;;1.72;100.00;98810.69;5043134;28;20486;-61
2024/03/03 01:10:53;;;;;;;18.48;10.13;;;;;;;1.75;100.00;98804.56;5045346;28;20049;-60
2024/03/03 01:13:20;;;;;;;18.60;10.02;;;;;;;1.78;100.00;98798.44;5046195;28;20469;-59
2024/03/03 01:15:48;;;;;;;18.30;9.60;;;;;;;1.80;100.00;98796.19;5041430;28;20041;-58
2024/03/03 01:18:15;;;;;;;23.25;12.95;;;;;;;1.84;100.00;98796.31;5041782;28;20521;-59
2024/03/03 01:20:43;;;;;;;25.08;12.65;;;;;;;1.88;100.00;98796.47;5032111;28;20052;-59
2024/03/03 01:23:11;;;;;;;22.85;10.38;;;;;;;1.90;100.00;98795.00;5054880;28;20071;-58
2024/03/03 01:25:39;;;;;;;25.50;12.05;;;;;;;1.93;100.00;98798.97;5050043;28;20056;-58
2024/03/03 01:28:07;;;;;;;20.38;11.23;;;;;;;1.94;100.00;98798.63;5059734;28;20491;-58
2024/03/03 01:30:35;;;;;;;21.65;10.15;;;;;;;1.95;100.00;98797.50;5048666;28;20418;-58
2024/03/03 01:33:03;;;;;;;20.10;10.55;;;;;;;1.97;100.00;98802.63;5059663;28;20044;-57
2024/03/03 01:35:30;;;;;;;24.08;12.55;;;;;;;1.99;100.00;98808.53;5062071;28;20052;-58
2024/03/03 01:37:57;;;;;;;25.33;10.55;;;;;;;2.01;100.00;98814.47;5048409;28;20053;-57
2024/03/03 01:40:25;;;;;;;19.77;9.27;;;;;;;2.02;100.00;98816.03;5035750;28;20480;-57
2024/03/03 01:42:57;;;;;;;23.13;10.90;;;;;;;2.06;100.00;98817.78;5036749;28;20048;-55
2024/03/03 01:45:24;;;;;;;20.67;10.70;;;;;;;2.08;100.00;98811.97;5039006;28;20411;-58
2024/03/03 01:47:54;;;;;;;21.15;10.23;;;;;;;2.10;100.00;98815.16;5044335;28;20049;-58
2024/03/03 01:50:22;;;;;;;22.35;11.13;;;;;;;2.11;100.00;98812.13;5060789;28;20044;-56
2024/03/03 01:52:52;;;;;;;16.58;10.32;;;;;;;2.16;100.00;98833.75;5041783;28;20057;-59
2024/03/03 01:55:21;;;;;;;16.17;9.60;;;;;;;2.20;100.00;98818.28;5045756;28;20057;-58
2024/03/03 01:57:52;;;;;;;22.20;11.98;;;;;;;2.23;100.00;98825.00;5034697;28;20060;-58
2024/03/03 02:00:20;;;;;;;23.35;10.82;;;;;;;2.24;100.00;98815.69;5045629;28;20056;-56
2024/03/03 02:02:49;;;;;;;21.35;10.80;;;;;;;2.26;100.00;98813.41;5039557;28;20515;-57
2024/03/03 02:05:18;;;;;;;19.13;11.25;;;;;;;2.28;100.00;98814.66;5034612;28;20060;-56
2024/03/03 02:07:46;;;;;;;20.67;10.30;;;;;;;2.32;100.00;98828.44;5051062;28;20052;-58
2024/03/03 02:10:15;;;;;;;22.67;11.43;;;;;;;2.33;100.00;98822.63;5042156;28;20049;-57
2024/03/03 02:12:46;;;;;;;17.50;9.90;;;;;;;2.35;100.00;98825.03;5035411;28;20435;-58
2024/03/03 02:15:14;;;;;;;16.33;9.10;;;;;;;2.37;100.00;98814.56;5038346;28;20057;-58
2024/03/03 02:17:42;;;;;;;21.10;10.25;;;;;;;2.39;100.00;98817.75;5045023;28;20045;-58
2024/03/03 02:20:10;;;;;;;20.92;12.18;;;;;;;2.41;100.00;98820.94;5035074;28;20041;-58
2024/03/03 02:22:37;;;;;;;18.83;9.80;;;;;;;2.42;100.00;98819.81;5046247;28;20049;-57
2024/03/03 02:25:05;;;;;;;17.75;9.27;;;;;;;2.43;100.00;98818.69;5040170;28;20052;-58
2024/03/03 02:27:33;;;;;;;16.40;8.88;;;;;;;2.45;100.00;98822.69;5040703;28;20049;-57
2024/03/03 02:30:03;;;;;;;18.25;9.43;;;;;;;2.45;100.00;98822.69;5046204;28;20052;-56
2024/03/03 02:32:30;;;;;;;22.92;10.38;;;;;;;2.45;100.00;98821.88;5046478;28;20514;-56
2024/03/03 02:34:57;;;;;;;26.77;9.40;;;;;;;2.46;100.00;98831.66;5047303;28;20498;-58
2024/03/03 02:37:25;;;;;;;15.93;9.20;;;;;;;2.46;100.00;98829.72;5047979;28;20049;-59
2024/03/03 02:39:52;;;;;;;18.63;9.90;;;;;;;2.48;100.00;98829.38;5036746;28;20045;-55
2024/03/03 02:42:20;;;;;;;17.58;8.85;;;;;;;2.47;100.00;98825.84;5044888;28;20399;-57
2024/03/03 02:44:47;;;;;;;21.63;8.85;;;;;;;2.47;100.00;98825.06;5045632;28;20045;-59
2024/03/03 02:47:14;;;;;;;16.45;7.88;;;;;;;2.49;100.00;98839.16;5040769;28;20056;-58
2024/03/03 02:49:42;;;;;;;16.85;8.40;;;;;;;2.50;100.00;98832.56;5045440;28;20053;-57
2024/03/03 02:52:10;;;;;;;16.25;9.05;;;;;;;2.52;100.00;98832.22;5037713;28;20045;-59
2024/03/03 02:54:37;;;;;;;21.73;9.68;;;;;;;2.51;100.00;98831.44;5042868;28;20056;-59
2024/03/03 02:57:05;;;;;;;15.25;9.57;;;;;;;2.50;100.00;98835.31;5048741;28;20050;-58
2024/03/03 02:59:33;;;;;;;16.60;9.65;;;;;;;2.50;100.00;98829.84;5035224;28;20068;-58
2024/03/03 03:02:00;;;;;;;16.48;9.52;;;;;;;2.50;100.00;98829.84;5120193;22;20052;-58
2024/03/03 03:04:28;;;;;;;15.35;10.07;;;;;;;2.49;100.00;98830.97;5049731;28;20048;-58
2024/03/03 03:06:56;;;;;;;15.23;9.13;;;;;;;2.51;100.00;98834.19;5043380;28;20418;-58
2024/03/03 03:09:23;;;;;;;18.02;9.77;;;;;;;2.50;100.00;98818.91;5036789;28;20060;-58
2024/03/03 03:11:51;;;;;;;19.27;9.98;;;;;;;2.52;100.00;98821.31;5031704;28;20053;-59
2024/03/03 03:14:19;;;;;;;17.13;9.77;;;;;;;2.52;100.00;98824.03;5041114;28;20049;-58
2024/03/03 03:16:51;;;;;;;19.27;10.20;;;;;;;2.51;100.00;98826.00;5040029;28;20498;-57
2024/03/03 03:19:19;;;;;;;19.17;10.90;;;;;;;2.52;100.00;98827.56;5039744;28;20057;-58
2024/03/03 03:21:47;;;;;;;16.83;9.25;;;;;;;2.51;100.00;98828.72;5043567;28;20037;-58
2024/03/03 03:24:14;;;;;;;22.15;13.23;;;;;;;2.52;100.00;98821.31;5030151;28;20045;-58
2024/03/03 03:26:41;;;;;;;20.27;10.10;;;;;;;2.53;100.00;98834.63;5038454;28;20044;-57
2024/03/03 03:29:09;;;;;;;15.07;9.85;;;;;;;2.53;100.00;98829.19;5039550;28;20041;-56
2024/03/03 03:31:36;;;;;;;15.55;8.82;;;;;;;2.54;100.00;98844.44;5049641;28;20052;-57
2024/03/03 03:34:03;;;;;;;15.10;9.10;;;;;;;2.54;100.00;98836.25;5049612;28;20045;-58
2024/03/03 03:36:31;;;;;;;13.25;8.48;;;;;;;2.54;100.00;98846.38;5046175;28;20064;-57
2024/03/03 03:38:59;;;;;;;12.00;7.63;;;;;;;2.53;100.00;98834.63;5046060;28;20048;-60
2024/03/03 03:41:26;;;;;;;14.70;9.05;;;;;;;2.55;100.00;98848.75;5015373;28;20057;-59
2024/03/03 03:43:54;;;;;;;19.05;9.15;;;;;;;2.55;100.00;98851.47;5034592;28;20049;-56
2024/03/03 03:46:21;;;;;;;11.73;7.25;;;;;;;2.55;100.00;98842.47;5041906;28;20060;-59
2024/03/03 03:48:48;;;;;;;15.20;9.02;;;;;;;2.55;100.00;98848.75;5029996;28;20499;-58
2024/03/03 03:51:16;;;;;;;16.80;9.23;;;;;;;2.56;100.00;98849.53;5039013;28;20056;-60
2024/03/03 03:53:44;;;;;;;21.40;9.15;;;;;;;2.58;100.00;98848.06;5033791;28;20049;-58
2024/03/03 03:56:11;;;;;;;16.45;7.90;;;;;;;2.59;100.00;98851.59;5039550;28;20048;-56
2024/03/03 03:58:38;;;;;;;18.63;10.60;;;;;;;2.58;100.00;98859.00;5029374;28;20506;-58
2024/03/03 04:01:05;;;;;;;20.02;10.00;;;;;;;2.59;100.00;98854.34;5033960;28;20057;-58
2024/03/03 04:03:33;;;;;;;22.35;10.35;;;;;;;2.59;100.00;98857.88;5030905;28;20052;-57
2024/03/03 04:06:00;;;;;;;14.95;9.75;;;;;;;2.61;100.00;98860.25;5031339;28;20049;-56
2024/03/03 04:08:27;;;;;;;15.18;9.35;;;;;;;2.61;100.00;98855.59;5046498;28;20041;-59
2024/03/03 04:10:57;;;;;;;15.30;9.07;;;;;;;2.61;100.00;98857.53;5038185;28;20474;-60
2024/03/03 04:13:24;;;;;;;15.02;9.13;;;;;;;2.61;100.00;98858.31;5046500;28;20053;-57
2024/03/03 04:15:52;;;;;;;14.85;8.10;;;;;;;2.61;100.00;98866.53;5048410;28;20045;-58
2024/03/03 04:18:19;;;;;;;20.33;9.27;;;;;;;2.62;100.00;98870.81;5047498;28;20056;-57
2024/03/03 04:20:51;;;;;;;16.15;7.65;;;;;;;2.62;100.00;98859.91;5048099;28;20043;-58
2024/03/03 04:23:19;;;;;;;14.98;9.05;;;;;;;2.62;100.00;98859.91;5029885;28;20061;-58
2024/03/03 04:25:46;;;;;;;17.20;9.38;;;;;;;2.63;100.00;98866.97;5047827;28;20053;-57
2024/03/03 04:28:13;;;;;;;12.60;8.57;;;;;;;2.62;100.00;98865.38;5030565;28;20060;-57
2024/03/03 04:30:41;;;;;;;13.35;7.38;;;;;;;2.64;100.00;98868.59;5047838;28;20068;-57
2024/03/03 04:33:08;;;;;;;16.65;7.13;;;;;;;2.63;100.00;98872.44;5046907;28;20053;-57
2024/03/03 04:35:36;;;;;;;10.80;6.97;;;;;;;2.62;100.00;98868.09;5047731;28;20049;-57
2024/03/03 04:38:04;;;;;;;12.57;8.05;;;;;;;2.64;100.00;98867.78;5042773;28;20052;-59
2024/03/03 04:40:31;;;;;;;13.93;7.90;;;;;;;2.63;100.00;98877.91;5044703;28;20482;-56
2024/03/03 04:42:58;;;;;;;10.98;7.47;;;;;;;2.63;100.00;98891.56;5047995;28;20469;-59
2024/03/03 04:45:26;;;;;;;15.00;8.05;;;;;;;2.65;100.00;98880.31;5044310;28;20048;-59
2024/03/03 04:47:53;;;;;;;13.50;8.63;;;;;;;2.65;100.00;98892.00;5044537;28;20040;-59
2024/03/03 04:50:20;;;;;;;13.07;7.95;;;;;;;2.66;100.00;98881.88;5033548;28;20838;-57
2024/03/03 04:52:48;;;;;;;12.85;7.32;;;;;;;2.67;100.00;98889.75;5046729;28;20033;-59
2024/03/03 04:55:16;;;;;;;10.50;7.28;;;;;;;2.67;100.00;98889.75;5058192;28;20409;-58
2024/03/03 04:57:45;;;;;;;14.45;8.55;;;;;;;2.67;100.00;98884.31;5038055;28;20457;-57
2024/03/03 05:00:14;;;;;;;15.07;8.07;;;;;;;2.69;100.00;98897.59;5042154;28;20045;-57
2024/03/03 05:02:41;;;;;;;14.73;8.90;;;;;;;2.66;100.00;98893.63;4992893;28;1256374;-58
2024/03/03 05:05:09;;;;;;;16.23;8.18;;;;;;;2.68;100.00;98894.06;5052241;28;20037;-58
2024/03/03 05:07:36;;;;;;;13.13;9.05;;;;;;;2.67;100.00;98900.69;5037742;28;20052;-57
2024/03/03 05:10:04;;;;;;;16.75;7.93;;;;;;;2.67;100.00;98891.69;5046721;28;20041;-57
2024/03/03 05:12:31;;;;;;;13.00;8.30;;;;;;;2.66;100.00;98904.56;5054701;28;20379;-58
2024/03/03 05:14:59;;;;;;;17.25;8.07;;;;;;;2.66;100.00;98903.75;5038462;28;20801;-57
2024/03/03 05:17:26;;;;;;;15.45;8.80;;;;;;;2.66;100.00;98918.22;5022372;28;20048;-58
2024/03/03 05:19:53;;;;;;;15.13;9.00;;;;;;;2.66;100.00;98914.66;5040523;28;20402;-59
2024/03/03 05:22:21;;;;;;;15.30;8.77;;;;;;;2.64;100.00;98920.47;5047226;28;20045;-58
2024/03/03 05:24:48;;;;;;;12.77;8.60;;;;;;;2.64;100.00;98923.22;5047231;28;20049;-57
2024/03/03 05:27:17;;;;;;;16.55;9.68;;;;;;;2.64;100.00;98922.41;5040910;28;21847;-58
2024/03/03 05:29:45;;;;;;;23.73;9.23;;;;;;;2.65;100.00;98918.56;5040225;28;20406;-58
2024/03/03 05:32:12;;;;;;;15.10;8.23;;;;;;;2.64;100.00;98912.28;5031457;28;20053;-58
2024/03/03 05:34:39;;;;;;;17.15;8.77;;;;;;;2.66;100.00;98925.59;5036917;28;20071;-58
2024/03/03 05:37:07;;;;;;;14.10;8.98;;;;;;;2.63;100.00;98935.28;5046511;28;20060;-58
2024/03/03 05:39:34;;;;;;;16.33;9.10;;;;;;;2.62;100.00;98936.41;5043483;28;20451;-58
2024/03/03 05:42:02;;;;;;;14.25;8.73;;;;;;;2.63;100.00;98938.00;5042955;28;20063;-57
2024/03/03 05:44:29;;;;;;;13.65;8.40;;;;;;;2.61;100.00;98940.28;5038893;28;20059;-58
2024/03/03 05:47:00;;;;;;;17.88;8.82;;;;;;;2.61;100.00;98945.75;5059140;28;20038;-59
2024/03/03 05:49:28;;;;;;;12.30;6.78;;;;;;;2.60;100.00;98944.13;5042715;28;20882;-58
2024/03/03 05:51:55;;;;;;;12.05;6.88;;;;;;;2.61;100.00;98951.22;5042122;28;20570;-56
2024/03/03 05:54:23;;;;;;;9.60;7.32;;;;;;;2.59;100.00;98956.22;5048005;28;20041;-58
2024/03/03 05:56:50;;;;;;;10.30;6.13;;;;;;;2.58;100.00;98957.34;5029487;28;20048;-58
2024/03/03 05:59:19;;;;;;;10.00;5.88;;;;;;;2.58;100.00;98957.34;5042652;28;20046;-59
2024/03/03 06:01:49;;;;;;;12.63;6.72;;;;;;;2.58;100.00;98962.81;5052075;28;20056;-57
2024/03/03 06:04:18;;;;;;;11.50;7.03;;;;;;;2.58;100.00;98962.81;5046894;28;20410;-58
2024/03/03 06:06:45;;;;;;;9.13;5.40;;;;;;;2.59;100.00;98964.41;5044666;28;20055;-56
2024/03/03 06:09:13;;;;;;;8.30;5.35;;;;;;;2.58;100.00;98968.25;5052078;28;20056;-58
2024/03/03 06:11:41;;;;;;;8.25;4.40;;;;;;;2.57;100.00;98983.03;5039133;28;20533;-58
2024/03/03 06:14:09;;;;;;;5.38;4.18;;;;;;;2.58;100.00;98962.00;5046554;28;20045;-58
2024/03/03 06:16:40;;;;;;;10.85;3.60;;;;;;;2.59;100.00;98980.00;5042473;28;20049;-58
2024/03/03 06:19:08;;;;;;;4.95;4.00;;;;;;;2.61;100.00;98984.00;5045314;28;20064;-57
2024/03/03 06:21:35;;;;;;;4.80;3.38;;;;;;;2.61;100.00;98988.66;5047147;28;20049;-58
2024/03/03 06:24:03;;;;;;;4.68;3.08;;;;;;;2.60;100.00;98992.50;5046478;28;20056;-58
2024/03/03 06:26:33;;;;;;;4.18;2.65;;;;;;;2.60;100.00;98987.84;5054626;28;20056;-60
2024/03/03 06:29:00;;;;;;;4.18;3.05;;;;;;;2.60;100.00;98993.31;5041519;28;20034;-58
2024/03/03 06:31:32;;;;;;;7.20;3.10;;;;;;;2.60;100.00;98992.50;5047860;28;20049;-56
2024/03/03 06:33:59;;;;;;;7.22;4.75;;;;;;;2.61;100.00;99003.09;5050675;28;20507;-58
2024/03/03 06:36:26;;;;;;;7.18;3.92;;;;;;;2.61;100.00;99005.84;5062082;28;20051;-56
2024/03/03 06:38:56;;;;;;;3.90;3.33;;;;;;;2.63;100.00;99014.50;5038110;28;20053;-58
2024/03/03 06:41:23;;;;;;;16.17;5.22;;;;;;;2.64;100.00;99005.19;5036148;28;20048;-58
2024/03/03 06:43:51;;;;;;;7.80;4.70;;;;;;;2.66;100.00;99013.03;5050361;28;20402;-60
2024/03/03 06:46:18;;;;;;;13.00;4.53;;;;;;;2.66;100.00;99013.03;5048719;28;20064;-56
2024/03/03 06:48:46;;;;;;;9.38;4.32;;;;;;;2.66;100.00;99019.28;5046108;28;20332;-58
2024/03/03 06:51:14;;;;;;;7.70;4.63;;;;;;;2.67;100.00;99031.84;5050091;28;20049;-58
2024/03/03 06:53:41;;;;;;;8.93;4.75;;;;;;;2.67;100.00;99034.56;5049072;28;20490;-58
2024/03/03 06:56:14;;;;;;;8.38;5.50;;;;;;;2.68;100.00;99035.34;5049933;28;20055;-59
2024/03/03 06:58:43;;;;;;;12.45;5.82;;;;;;;2.70;100.00;99042.06;5047814;28;20578;-58
2024/03/03 07:01:11;;;;;;;10.35;5.80;;;;;;;2.70;100.00;99044.78;5036446;28;20057;-58
2024/03/03 07:06:09;;;;;;;11.25;6.88;;;;;;;2.74;100.00;99059.41;5045868;28;20041;-59
2024/03/03 07:08:36;;;;;;;13.75;6.97;;;;;;;2.74;100.00;99064.88;5039673;28;20418;-59
2024/03/03 07:11:03;;;;;;;14.55;8.65;;;;;;;2.74;100.00;99064.88;5039718;28;20060;-58
2024/03/03 07:13:32;;;;;;;14.30;9.27;;;;;;;2.73;100.00;99076.91;5048777;28;20049;-58
2024/03/03 07:15:59;;;;;;;12.10;7.47;;;;;;;2.74;100.00;99070.34;5049005;28;20055;-58
2024/03/03 07:18:28;;;;;;;16.35;8.90;;;;;;;2.75;100.00;99060.22;5043442;28;20045;-58
2024/03/03 07:20:55;;;;;;;16.38;8.52;;;;;;;2.76;100.00;99068.06;5056459;28;20064;-59
2024/03/03 07:23:22;;;;;;;14.30;8.32;;;;;;;2.77;100.00;99080.59;5051256;28;20040;-57
2024/03/03 07:25:50;;;;;;;15.30;8.40;;;;;;;2.76;100.00;99079.00;5038874;28;20414;-59
2024/03/03 07:28:17;;;;;;;15.23;7.80;;;;;;;2.78;100.00;99082.19;5043569;28;20049;-58
2024/03/03 07:30:44;;;;;;;14.23;7.45;;;;;;;2.79;100.00;99086.53;5046939;28;20041;-56
2024/03/03 07:33:12;;;;;;;14.63;8.50;;;;;;;2.81;100.00;99089.72;5040381;28;20054;-60
2024/03/03 07:35:39;;;;;;;16.73;7.93;;;;;;;2.83;100.00;99092.13;5046663;28;20064;-58
2024/03/03 07:38:06;;;;;;;16.50;7.93;;;;;;;2.86;100.00;99100.44;5048728;28;20056;-59
2024/03/03 07:40:37;;;;;;;11.10;7.05;;;;;;;2.87;100.00;99102.06;5043562;28;20041;-59
2024/03/03 07:43:05;;;;;;;15.80;7.70;;;;;;;2.88;100.00;99108.31;5041466;28;20045;-59
2024/03/03 07:45:33;;;;;;;15.73;9.00;;;;;;;2.87;100.00;99102.06;5045236;28;20438;-58
2024/03/03 07:48:01;;;;;;;17.88;8.35;;;;;;;2.88;100.00;99111.06;5056094;28;20052;-58
2024/03/03 07:50:29;;;;;;;18.00;7.22;;;;;;;2.87;100.00;99110.25;5046106;28;20049;-57
2024/03/03 07:52:56;;;;;;;18.40;7.70;;;;;;;2.89;100.00;99120.84;5043771;28;20048;-57
2024/03/03 07:55:23;;;;;;;14.23;6.60;;;;;;;2.88;100.00;99122.78;5042499;28;20049;-58
2024/03/03 07:57:54;;;;;;;14.57;7.43;;;;;;;2.91;100.00;99124.84;5043122;28;20519;-60
2024/03/03 08:00:22;;;;;;;10.57;6.13;;;;;;;2.92;100.00;99129.19;5039860;28;20040;-58
2024/03/03 08:02:49;;;;;;;14.15;7.20;;;;;;;2.98;100.00;99133.31;5043058;28;20601;-56
2024/03/03 08:05:16;;;;;;;14.60;7.53;;;;;;;3.02;100.00;99130.69;5041063;28;20045;-58
2024/03/03 08:07:44;;;;;;;11.65;7.05;;;;;;;3.07;100.00;99144.19;5049729;28;20045;-59
2024/03/03 08:10:11;;;;;;;12.90;7.00;;;;;;;3.11;100.00;99149.75;5044290;28;20053;-59
2024/03/03 08:12:40;;;;;;;11.10;6.25;;;;;;;3.16;100.00;99152.28;5059544;28;20079;-58
2024/03/03 08:15:07;;;;;;;14.45;6.85;;;;;;;3.22;100.00;99159.16;5046315;28;20037;-58
2024/03/03 08:17:35;;;;;;;12.80;7.68;;;;;;;3.25;100.00;99155.75;5046763;28;20502;-60
2024/03/03 08:20:02;;;;;;;15.35;8.20;;;;;;;3.25;100.00;99148.38;5050644;28;20560;-60
2024/03/03 08:22:30;;;;;;;15.23;8.45;;;;;;;3.26;100.00;99151.88;5044484;28;20045;-56
2024/03/03 08:24:57;;;;;;;17.95;8.18;;;;;;;3.29;100.00;99165.69;5039252;28;20048;-58
2024/03/03 08:27:24;;;;;;;19.23;9.80;;;;;;;3.32;100.00;99162.28;5044359;28;20054;-58
2024/03/03 08:29:52;;;;;;;17.73;8.00;;;;;;;3.36;100.00;99162.44;5057853;28;20041;-58
2024/03/03 08:32:20;;;;;;;14.43;8.02;;;;;;;3.36;100.00;99167.91;5068013;28;20048;-59
2024/03/03 08:34:47;;;;;;;15.63;7.35;;;;;;;3.36;100.00;99170.63;5039306;28;20064;-57
2024/03/03 08:37:14;;;;;;;12.65;7.57;;;;;;;3.37;100.00;99177.69;5048387;28;20060;-57
2024/03/03 08:39:42;;;;;;;15.40;6.97;;;;;;;3.37;100.00;99181.22;5048052;28;20045;-57
2024/03/03 08:42:09;;;;;;;13.77;6.40;;;;;;;3.40;100.00;99191.50;5061805;28;20048;-57
2024/03/03 08:44:36;;;;;;;12.43;5.43;;;;;;;3.44;100.00;99191.63;5059022;28;20397;-59
2024/03/03 08:47:04;;;;;;;8.80;4.25;;;;;;;3.48;100.00;99198.03;5057411;28;20041;-58
2024/03/03 08:49:32;;;;;;;6.20;4.32;;;;;;;3.53;100.00;99198.63;5040022;28;20612;-58
2024/03/03 08:52:02;;;;;;;6.70;3.85;;;;;;;3.59;100.00;99197.28;5040284;28;20043;-60
2024/03/03 08:54:29;;;;;;;5.53;3.60;;;;;;;3.64;100.00;99199.00;5055641;28;20049;-59
2024/03/03 08:56:57;;;;;;;5.95;2.80;;;;;;;3.69;100.00;99201.53;5047818;28;20490;-58
2024/03/03 08:59:24;;;;;;;6.47;3.20;;;;;;;3.72;100.00;99203.59;5047315;28;20059;-60
2024/03/03 09:01:51;;;;;;;4.95;2.92;;;;;;;3.72;100.00;99209.06;5029058;28;20061;-59
2024/03/03 09:04:19;;;;;;;2.85;2.22;;;;;;;3.70;100.00;99214.09;5043197;28;20060;-61
2024/03/03 09:06:46;;;;;;;2.67;2.47;;;;;;;3.68;100.00;99219.06;5039651;28;21207;-56
2024/03/03 09:09:16;;;;;;;4.78;2.33;;;;;;;3.71;100.00;99218.41;5039019;28;20056;-57
2024/03/03 09:11:47;;;;;;;2.97;1.98;;;;;;;3.75;100.00;99216.59;5041223;28;20066;-57
2024/03/03 09:14:14;;;;;;;4.25;2.38;;;;;;;3.76;100.00;99226.41;5043802;28;20049;-59
2024/03/03 09:16:41;;;;;;;2.65;1.77;;;;;;;3.74;100.00;99220.47;5043752;28;20045;-59
2024/03/03 09:19:09;;;;;;;2.72;1.83;;;;;;;3.71;100.00;99234.81;5033668;28;20049;-53
2024/03/03 09:21:39;;;;;;;5.90;2.08;;;;;;;3.68;100.00;99232.75;5055155;28;20127;-59
2024/03/03 09:24:07;;;;;;;2.17;1.75;;;;;;;3.67;100.00;99234.72;5052691;28;20049;-57
2024/03/03 09:26:35;;;;;;;3.20;2.05;;;;;;;3.69;100.00;99237.09;5040181;28;20041;-56
2024/03/03 09:29:03;;;;;;;2.83;2.28;;;;;;;3.71;100.00;99245.78;5044482;28;20057;-55
2024/03/03 09:31:30;;;;;;;2.80;1.88;;;;;;;3.76;100.00;99247.53;5064903;28;20048;-58
2024/03/03 09:33:58;;;;;;;2.25;1.33;;;;;;;3.81;100.00;99242.63;5060132;28;20049;-59
2024/03/03 09:36:25;;;;;;;17.58;9.38;;;;;;;3.86;100.00;99256.13;5045986;28;20049;-58
2024/03/03 09:38:52;;;;;;;2.30;1.45;;;;;;;3.94;100.00;99244.28;5047116;28;20059;-59
2024/03/03 09:41:20;;;;;;;2.92;1.63;;;;;;;4.11;100.00;99246.81;5056811;28;20045;-59
2024/03/03 09:43:52;;;;;;;5.97;1.20;;;;;;;4.28;100.00;99254.84;5061402;28;20053;-56
2024/03/03 09:46:24;;;;;;;2.20;2.03;;;;;;;4.37;100.00;99262.19;5044131;28;20049;-58
2024/03/03 09:48:52;;;;;;;1.20;0.77;;;;;;;4.34;100.00;99265.59;5052528;28;20051;-57
2024/03/03 09:51:20;;;;;;;1.05;0.90;;;;;;;4.27;100.00;99275.16;5061632;28;20059;-58
2024/03/03 09:53:47;;;;;;;3.05;0.90;;;;;;;4.20;100.00;99274.94;5032916;28;20064;-60
2024/03/03 09:56:16;;;;;;;2.78;1.25;;;;;;;4.12;100.00;99270.34;5042411;28;20049;-62
2024/03/03 09:58:43;;;;;;;3.90;1.00;;;;;;;4.07;100.00;99281.50;5033723;28;20402;-56
2024/03/03 10:01:12;;;;;;;2.20;0.93;;;;;;;4.08;100.00;99277.63;5043272;28;20507;-55
2024/03/03 10:03:41;;;;;;;1.27;1.00;;;;;;;4.11;100.00;99289.84;5048546;28;20049;-60
2024/03/03 10:06:13;;;;;;;2.95;0.75;;;;;;;4.13;100.00;99295.78;5038949;28;20048;-58
2024/03/03 10:08:41;;;;;;;0.90;0.73;;;;;;;4.14;100.00;99292.72;5043263;28;20056;-58
2024/03/03 10:11:14;;;;;;;5.18;1.85;;;;;;;4.18;100.00;99296.34;5064373;28;20043;-58
2024/03/03 10:13:45;;;;;;;0.82;0.77;;;;;;;4.20;100.00;99307.78;5030948;28;20050;-58
2024/03/03 10:16:17;;;;;;;1.02;0.95;;;;;;;4.22;100.00;99308.25;5042139;28;20060;-60
2024/03/03 10:18:58;;;;;;;2.40;1.05;;;;;;;4.26;100.00;99314.63;5041760;28;20569;-56
2024/03/03 10:21:26;;;;;;;0.85;0.77;;;;;;;4.30;100.00;99315.59;5039156;28;20056;-58
2024/03/03 10:24:23;;;;;;;2.30;0.88;;;;;;;4.37;100.00;99322.44;5041030;28;20050;-60
2024/03/03 10:26:55;;;;;;;2.38;0.80;;;;;;;4.47;100.00;99319.28;5040308;28;20402;-60
2024/03/03 10:29:25;;;;;;;0.28;0.28;;;;;;;4.63;100.00;99325.69;5053135;28;21080;-59
2024/03/03 10:31:56;;;;;;;3.95;1.30;;;;;;;4.73;100.00;99337.03;5034565;28;20041;-60
2024/03/03 10:34:25;;;;;;;2.67;1.20;;;;;;;4.87;100.00;99344.94;5050028;28;20053;-60
2024/03/03 10:37:03;;;;;;;2.33;1.10;;;;;;;4.96;100.00;99345.59;5040474;28;20052;-59
2024/03/03 10:39:40;;;;;;;1.80;1.20;;;;;;;5.04;100.00;99347.44;5038528;28;20053;-59
2024/03/03 10:42:11;;;;;;;2.35;1.10;;;;;;;5.02;100.00;99355.22;5046103;28;20383;-55
2024/03/03 10:44:38;;;;;;;2.05;1.13;;;;;;;4.95;100.00;99359.69;5048202;28;20049;-58
2024/03/03 10:47:08;;;;;;;1.23;1.13;;;;;;;4.92;100.00;99356.44;5044020;28;20037;-53
2024/03/03 10:49:37;;;;;;;3.17;0.80;;;;;;;4.96;100.00;99362.06;5031559;28;20529;-57
2024/03/03 10:52:09;;;;;;;1.10;0.82;;;;;;;5.20;100.00;99367.56;5051553;28;20044;-58
2024/03/03 10:54:41;;;;;;;1.17;0.85;;;;;;;5.38;100.00;99373.59;5045750;28;20699;-59
2024/03/03 10:57:09;;;;;;;2.85;0.90;;;;;;;5.47;100.00;99360.56;5038454;28;20049;-59
2024/03/03 10:59:41;;;;;;;0.90;0.90;;;;;;;5.46;100.00;99359.78;5062964;28;20059;-58
2024/03/03 11:02:14;;;;;;;2.27;1.13;;;;;;;5.37;100.00;99366.53;5046457;28;20048;-58
2024/03/03 11:04:42;;;;;;;2.28;1.30;;;;;;;5.30;100.00;99367.09;5054808;28;20056;-56
2024/03/03 11:07:11;;;;;;;1.83;1.10;;;;;;;5.28;100.00;99368.59;5057113;28;20139;-58
2024/03/03 11:09:38;;;;;;;3.00;0.70;;;;;;;5.26;100.00;99366.19;5045803;28;20068;-57
2024/03/03 11:12:12;;;;;;;0.88;0.85;;;;;;;5.26;100.00;99363.47;5042272;28;20037;-58
2024/03/03 11:14:46;;;;;;;8.38;0.98;;;;;;;5.26;100.00;99365.41;5037202;28;20049;-60
2024/03/03 11:17:20;;;;;;;0.77;0.77;;;;;;;5.27;100.00;99367.00;5035556;28;20423;-57
2024/03/03 11:19:49;;;;;;;2.35;1.05;;;;;;;5.28;100.00;99365.84;5042562;28;20525;-59
2024/03/03 11:22:34;;;;;;;4.35;0.80;;;;;;;5.31;100.00;99356.94;5058469;28;20536;-60
2024/03/03 11:25:09;;;;;;;1.88;1.33;;;;;;;5.36;100.00;99370.41;5045096;28;20048;-60
2024/03/03 11:27:41;;;;;;;0.90;0.88;;;;;;;5.39;100.00;99365.03;5056961;28;20041;-60
2024/03/03 11:30:10;;;;;;;1.95;1.33;;;;;;;5.46;100.00;99375.44;5054869;28;20521;-59
2024/03/03 11:32:39;;;;;;;0.90;0.90;;;;;;;5.56;100.00;99368.69;5068379;28;20040;-59
2024/03/03 11:35:08;;;;;;;2.47;0.80;;;;;;;5.64;100.00;99387.75;5061926;28;20502;-60